Latest Coastal Weather Observations for Tewantin

IDQ60701

Issued at 3:22 am EST Tuesday 19 October 2021 (issued every 10 minutes, with the page automatically refreshed every 10 minutes)

About coastal observations | Map of coastal stations | Coastal observations for QLD | Marine services | Other Formats
Station Details ID: 040908 Name: TEWANTIN RSL PARK Lat: -26.39 Lon: 153.04 Height: 6.4 m
Data from the previous 72 hours. | See also: Recent months at Tewantin
Date/Time
EST
Wind Sea
Height
m
Swell Vis
km
Cloud Weather Temp
°C
Press
MSL
hPa
Rain since
9am
mm
Dir  Spd
kts
Gust
kts
Height
m
Period
s
Dir
19/03:00am S 1 4 - - - - - - - 15.8 1014.5 0.6
19/02:30am CALM 0 0 - - - - - - - 16.2 1014.8 0.6
19/02:00am CALM 0 0 - - - - - - - 16.4 1015.1 0.6
19/01:30am CALM 0 0 - - - - - - - 16.4 1015.5 0.6
19/01:00am CALM 0 3 - - - - - - - 16.4 1015.5 0.6
19/12:30am SW 2 4 - - - - - - - 16.6 1015.8 0.6
19/12:00am SW 1 4 - - - - - - - 16.4 1016.3 0.6
 
Date/Time
EST
Wind Sea
Height
m
Swell Vis
km
Cloud Weather Temp
°C
Press
MSL
hPa
Rain since
9am
mm
Dir  Spd
kts
Gust
kts
Height
m
Period
s
Dir
18/11:30pm CALM 0 0 - - - - - - - 16.6 1017.0 0.6
18/11:00pm WSW 1 4 - - - - - - - 17.1 1017.3 0.6
18/10:30pm SSW 3 5 - - - - - - - 17.6 1017.4 0.6
18/10:00pm SW 3 5 - - - - - - - 17.2 1017.2 0.6
18/09:30pm SSW 4 6 - - - - - - - 17.2 1016.6 0.6
18/09:00pm SSW 5 8 - - - - - - - 17.5 1016.1 0.6
18/08:30pm CALM 0 2 - - - - - - - 17.3 1016.0 0.6
18/08:00pm W 2 4 - - - - - - - 17.7 1016.3 0.6
18/07:30pm NNW 3 5 - - - - - - - 18.1 1016.1 0.6
18/07:00pm ESE 5 8 - - - - - - - 18.3 1015.6 0.6
18/06:30pm SSW 5 8 - - - - - - - 18.8 1016.0 0.6
18/06:00pm WSW 7 13 - - - - - - Recent precip. 18.4 1016.0 0.6
18/05:30pm WSW 6 10 - - - - - - - 19.2 1015.9 0.6
18/05:00pm SW 6 12 - - - - - - - 19.7 1014.5 0.4
18/04:30pm WSW 5 7 - - - - - - - 20.8 1014.2 0.4
18/04:00pm W 5 9 - - - - - - - 21.3 1013.6 0.4
18/03:30pm WNW 8 13 - - - - - - - 21.2 1014.0 0.4
18/03:00pm NNW 14 22 - - - - - - - 22.1 1013.7 0.4
18/02:30pm NNE 7 11 - - - - - - - 22.5 1013.4 0.4
18/02:00pm NNE 8 14 - - - - - - - 22.6 1013.4 0.4
18/01:30pm NNE 9 16 - - - - - - - 22.6 1014.0 0.4
18/01:00pm NNE 9 16 - - - - - - - 22.1 1014.2 0.4
18/12:30pm NE 11 17 - - - - - - - 22.0 1014.5 0.4
18/12:00pm NE 8 15 - - - - - - - 22.1 1015.7 0.2
18/11:30am NE 8 13 - - - - - - - 22.6 1016.0 0.2
18/11:00am NE 8 13 - - - - - - - 22.2 1016.9 0.2
18/10:30am ENE 6 7 - - - - - - - 22.3 1017.9 0.2
18/10:00am ENE 7 10 - - - - - - - 23.6 1018.0 0.0
18/09:30am NNE 7 12 - - - - - - - 25.4 1017.9 0.0
18/09:00am NE 6 9 - - - - - - - 24.8 1017.8 0.0
18/08:30am NE 5 9 - - - - - - - 24.5 1017.5 0.0
18/08:00am ENE 6 10 - - - - - - - 24.4 1017.5 0.0
18/07:30am NNE 3 5 - - - - - - - 23.2 1017.8 0.0
18/07:00am S 3 5 - - - - - - - 21.2 1017.7 0.0
18/06:30am S 4 6 - - - - - - - 19.7 1017.3 0.0
18/06:00am CALM 0 3 - - - - - - - 19.0 1016.9 0.0
18/05:30am SSW 3 4 - - - - - - - 18.7 1016.5 0.0
18/05:00am SSW 3 4 - - - - - - - 18.5 1016.0 0.0
18/04:30am SSW 4 5 - - - - - - - 18.7 1015.8 0.0
18/04:00am SSW 4 5 - - - - - - - 19.0 1015.9 0.0
18/03:30am N 2 3 - - - - - - - 20.4 1015.8 0.0
18/03:00am NNE 4 7 - - - - - - - 20.9 1015.7 0.0
18/02:30am NNE 6 9 - - - - - - - 21.1 1015.7 0.0
18/02:00am NE 3 6 - - - - - - - 20.3 1015.8 0.0
18/01:30am NE 4 6 - - - - - - - 20.4 1016.0 0.0
18/01:00am NE 5 10 - - - - - - - 21.0 1016.5 0.0
18/12:30am NE 6 10 - - - - - - - 21.0 1016.6 0.0
18/12:00am NE 5 10 - - - - - - - 21.0 1016.7 0.0
 
Date/Time
EST
Wind Sea
Height
m
Swell Vis
km
Cloud Weather Temp
°C
Press
MSL
hPa
Rain since
9am
mm
Dir  Spd
kts
Gust
kts
Height
m
Period
s
Dir
17/11:30pm NE 5 8 - - - - - - - 20.8 1016.9 0.0
17/11:00pm NE 5 8 - - - - - - - 21.1 1016.8 0.0
17/10:30pm NE 6 10 - - - - - - - 20.9 1017.0 0.0
17/10:00pm NE 5 10 - - - - - - - 21.0 1017.0 0.0
17/09:30pm NE 5 7 - - - - - - - 20.5 1017.0 0.0
17/09:00pm NE 4 5 - - - - - - - 20.2 1016.7 0.0
17/08:30pm NE 4 6 - - - - - - - 20.4 1016.5 0.0
17/08:00pm NE 4 6 - - - - - - - 20.6 1016.1 0.0
17/07:30pm NE 5 7 - - - - - - - 20.7 1015.8 0.0
17/07:00pm NE 5 9 - - - - - - - 20.8 1015.4 0.0
17/06:30pm NE 3 6 - - - - - - - 20.9 1014.9 0.0
17/06:00pm ENE 5 8 - - - - - - - 21.6 1014.4 0.0
17/05:30pm ENE 6 10 - - - - - - - 22.2 1013.6 0.0
17/05:00pm ENE 7 13 - - - - - - - 22.7 1013.1 0.0
17/04:30pm ENE 8 12 - - - - - - - 22.9 1012.8 0.0
17/04:00pm E 9 13 - - - - - - - 23.2 1012.6 0.0
17/03:30pm ESE 8 12 - - - - - - - 23.5 1012.5 0.0
17/03:00pm ESE 9 12 - - - - - - - 23.7 1012.5 0.0
17/02:30pm ESE 10 14 - - - - - - - 23.9 1012.7 0.0
17/02:00pm ESE 9 15 - - - - - - - 23.8 1012.9 0.0
17/01:30pm ESE 9 14 - - - - - - - 24.1 1013.0 0.0
17/01:00pm ESE 8 11 - - - - - - - 24.4 1013.3 0.0
17/12:30pm E 8 11 - - - - - - - 25.0 1013.6 0.0
17/12:00pm ENE 8 13 - - - - - - - 26.1 1014.1 0.0
17/11:30am E 7 11 - - - - - - - 25.7 1014.4 0.0
17/11:00am WNW 4 8 - - - - - - - 27.6 1014.8 0.0
17/10:30am SSW 5 8 - - - - - - - 26.3 1015.2 0.0
17/10:00am SW 3 7 - - - - - - - 25.9 1015.5 0.0
17/09:30am SSW 5 7 - - - - - - - 25.8 1015.7 0.0
17/09:00am SW 3 5 - - - - - - - 25.4 1015.8 0.0
17/08:30am SSW 4 5 - - - - - - - 23.8 1015.8 0.0
17/08:00am WSW 3 6 - - - - - - - 23.0 1015.8 0.0
17/07:30am WSW 2 4 - - - - - - - 21.2 1015.7 0.0
17/07:00am CALM 0 0 - - - - - - - 18.2 1015.4 0.0
17/06:30am CALM 0 0 - - - - - - - 16.0 1015.1 0.0
17/06:00am CALM 0 0 - - - - - - - 14.2 1014.7 0.0
17/05:30am WSW 1 4 - - - - - - - 12.9 1014.4 0.0
17/05:00am CALM 0 0 - - - - - - - 12.5 1014.0 0.0
17/04:30am CALM 0 0 - - - - - - - 13.0 1013.5 0.0
17/04:00am CALM 0 0 - - - - - - - 13.0 1013.2 0.0
17/03:30am CALM 0 0 - - - - - - - 13.1 1012.8 0.0
17/03:00am CALM 0 0 - - - - - - - 13.3 1012.6 0.0
17/02:30am W 1 3 - - - - - - - 13.7 1012.5 0.0
17/02:00am NW 3 5 - - - - - - - 14.3 1012.4 0.0
17/01:30am CALM 0 0 - - - - - - - 14.4 1012.5 0.0
17/01:00am CALM 0 0 - - - - - - - 15.2 1012.4 0.0
17/12:30am CALM 0 0 - - - - - - - 15.4 1012.6 0.0
17/12:00am CALM 0 0 - - - - - - - 15.9 1012.9 0.0
 
Date/Time
EST
Wind Sea
Height
m
Swell Vis
km
Cloud Weather Temp
°C
Press
MSL
hPa
Rain since
9am
mm
Dir  Spd
kts
Gust
kts
Height
m
Period
s
Dir
16/11:30pm CALM 0 0 - - - - - - - 15.9 1013.0 0.0
16/11:00pm CALM 0 0 - - - - - - - 16.4 1012.9 0.0
16/10:30pm CALM 0 0 - - - - - - - 16.8 1012.8 0.0
16/10:00pm CALM 0 1 - - - - - - - 17.4 1012.5 0.0
16/09:30pm NW 3 4 - - - - - - - 18.2 1012.4 0.0
16/09:00pm W 3 6 - - - - - - - 18.2 1012.1 0.0
16/08:30pm CALM 0 3 - - - - - - - 18.2 1011.8 0.0
16/08:00pm CALM 0 0 - - - - - - - 18.7 1011.4 0.0
16/07:30pm NW 3 4 - - - - - - - 19.9 1011.0 0.0
16/07:00pm NNE 4 7 - - - - - - - 20.3 1010.6 0.0
16/06:30pm N 6 8 - - - - - - - 21.0 1010.1 0.0
16/06:00pm NNE 7 11 - - - - - - - 21.3 1009.5 0.0
16/05:30pm NNE 7 10 - - - - - - - 21.8 1009.0 0.0
16/05:00pm NNE 9 14 - - - - - - - 22.2 1008.5 0.0
16/04:30pm NNE 9 14 - - - - - - - 22.6 1008.2 0.0
16/04:00pm NNE 9 15 - - - - - - - 22.9 1008.0 0.0
16/03:30pm NNE 11 16 - - - - - - - 23.0 1008.0 0.0
16/03:00pm NNE 10 14 - - - - - - - 23.2 1007.9 0.0
16/02:30pm NE 8 13 - - - - - - - 23.7 1008.0 0.0
16/02:00pm NE 9 13 - - - - - - - 24.5 1008.2 0.0
16/01:30pm NNE 10 17 - - - - - - - 24.3 1008.4 0.0
16/01:00pm NE 8 12 - - - - - - - 25.4 1008.5 0.0
16/12:30pm NW 7 12 - - - - - - - 27.3 1008.8 0.0
16/12:00pm SW 4 8 - - - - - - - 27.7 1009.2 0.0
16/11:30am SW 4 8 - - - - - - - 27.3 1009.7 0.0
16/11:00am W 5 10 - - - - - - - 26.3 1010.1 0.0
16/10:30am WSW 8 13 - - - - - - - 25.9 1010.4 0.0
16/10:00am SW 7 13 - - - - - - - 25.7 1010.5 0.0
16/09:30am SW 8 14 - - - - - - - 25.4 1010.7 0.0
16/09:00am SW 6 12 - - - - - - Recent precip. 24.5 1011.0 1.6
16/08:30am W 4 6 - - - - - - - 23.1 1011.2 1.4
16/08:00am NNW 4 6 - - - - - - - 20.7 1011.2 1.4
16/07:30am NW 4 6 - - - - - - - 19.9 1011.1 1.4
16/07:00am NNW 4 5 - - - - - - - 18.5 1010.7 1.4
16/06:30am NW 3 5 - - - - - - - 16.8 1010.4 1.4
16/06:00am NW 1 4 - - - - - - - 14.5 1009.9 1.4
16/05:30am CALM 0 0 - - - - - - - 14.0 1009.6 1.4
16/05:00am CALM 0 0 - - - - - - - 14.2 1009.4 1.4
16/04:30am CALM 0 2 - - - - - - - 14.6 1009.1 1.4
16/04:00am CALM 0 0 - - - - - - - 15.5 1008.7 1.4
16/03:30am CALM 0 0 - - - - - - - 15.7 1008.5 1.4

Other formats

Comma delimited format used in spreadsheet applications
http://www.bom.gov.au/fwo/IDQ60701/IDQ60701.94570.axf

JavaScript Object Notation format (JSON) in row-major order
http://www.bom.gov.au/fwo/IDQ60701/IDQ60701.94570.json

Data quality

Most of these data are generated automatically and are frequently updated. Quality checks on data are not normally performed. It is possible for incorrect values to appear. Refer to information at About Latest Weather Observations and please check the disclaimer before using these data.